sensor_id;sensor_type;location;lat;lon;timestamp;temperature;humidity
13585;DHT22;6863;48.402;9.994;2023-09-19T00:00:01;16.40;99.90
13585;DHT22;6863;48.402;9.994;2023-09-19T00:02:27;16.50;99.90
13585;DHT22;6863;48.402;9.994;2023-09-19T00:04:52;16.60;99.90
13585;DHT22;6863;48.402;9.994;2023-09-19T00:07:19;16.60;99.90
13585;DHT22;6863;48.402;9.994;2023-09-19T00:09:44;16.70;99.90
13585;DHT22;6863;48.402;9.994;2023-09-19T00:12:10;16.70;99.90
13585;DHT22;6863;48.402;9.994;2023-09-19T00:14:35;16.70;99.90
13585;DHT22;6863;48.402;9.994;2023-09-19T00:17:02;16.70;99.90
13585;DHT22;6863;48.402;9.994;2023-09-19T00:19:36;16.60;99.90
13585;DHT22;6863;48.402;9.994;2023-09-19T00:22:03;16.50;99.90
13585;DHT22;6863;48.402;9.994;2023-09-19T00:24:29;16.40;99.90
13585;DHT22;6863;48.402;9.994;2023-09-19T00:26:55;16.30;99.90
13585;DHT22;6863;48.402;9.994;2023-09-19T00:29:25;16.20;99.90
13585;DHT22;6863;48.402;9.994;2023-09-19T00:31:55;16.10;99.90
13585;DHT22;6863;48.402;9.994;2023-09-19T00:34:21;16.10;99.90
13585;DHT22;6863;48.402;9.994;2023-09-19T00:36:47;16.10;99.90
13585;DHT22;6863;48.402;9.994;2023-09-19T00:39:12;16.10;99.90
13585;DHT22;6863;48.402;9.994;2023-09-19T00:41:38;16.10;99.90
13585;DHT22;6863;48.402;9.994;2023-09-19T00:44:04;16.00;99.90
13585;DHT22;6863;48.402;9.994;2023-09-19T00:46:31;15.90;99.90
13585;DHT22;6863;48.402;9.994;2023-09-19T00:48:58;15.90;99.90
13585;DHT22;6863;48.402;9.994;2023-09-19T00:51:25;15.80;99.90
13585;DHT22;6863;48.402;9.994;2023-09-19T00:53:52;15.70;99.90
13585;DHT22;6863;48.402;9.994;2023-09-19T00:56:19;15.70;99.90
13585;DHT22;6863;48.402;9.994;2023-09-19T00:58:46;15.70;99.90
13585;DHT22;6863;48.402;9.994;2023-09-19T01:01:15;15.70;99.90
13585;DHT22;6863;48.402;9.994;2023-09-19T01:03:41;15.70;99.90
13585;DHT22;6863;48.402;9.994;2023-09-19T01:06:07;15.80;99.90
13585;DHT22;6863;48.402;9.994;2023-09-19T01:08:34;15.80;99.90
13585;DHT22;6863;48.402;9.994;2023-09-19T01:11:28;15.80;99.90
13585;DHT22;6863;48.402;9.994;2023-09-19T01:14:11;15.80;99.90
13585;DHT22;6863;48.402;9.994;2023-09-19T01:16:48;15.80;99.90
13585;DHT22;6863;48.402;9.994;2023-09-19T01:25:56;15.80;99.90
13585;DHT22;6863;48.402;9.994;2023-09-19T01:30:53;15.80;99.90
13585;DHT22;6863;48.402;9.994;2023-09-19T01:33:23;15.80;99.90
13585;DHT22;6863;48.402;9.994;2023-09-19T01:35:49;15.80;99.90
13585;DHT22;6863;48.402;9.994;2023-09-19T01:38:15;15.80;99.90
13585;DHT22;6863;48.402;9.994;2023-09-19T01:40:43;15.80;99.90
13585;DHT22;6863;48.402;9.994;2023-09-19T01:43:20;15.80;99.90
13585;DHT22;6863;48.402;9.994;2023-09-19T01:48:43;15.80;99.90
13585;DHT22;6863;48.402;9.994;2023-09-19T01:51:17;15.80;99.90
13585;DHT22;6863;48.402;9.994;2023-09-19T01:53:53;15.80;99.90
13585;DHT22;6863;48.402;9.994;2023-09-19T01:56:34;15.70;99.90
13585;DHT22;6863;48.402;9.994;2023-09-19T01:59:13;15.80;99.90
13585;DHT22;6863;48.402;9.994;2023-09-19T02:01:39;15.80;99.90
13585;DHT22;6863;48.402;9.994;2023-09-19T02:04:07;15.80;99.90
13585;DHT22;6863;48.402;9.994;2023-09-19T02:09:04;15.70;99.90
13585;DHT22;6863;48.402;9.994;2023-09-19T02:11:30;15.70;99.90
13585;DHT22;6863;48.402;9.994;2023-09-19T02:13:55;15.70;99.90
13585;DHT22;6863;48.402;9.994;2023-09-19T02:16:21;15.80;99.90
13585;DHT22;6863;48.402;9.994;2023-09-19T02:18:50;15.80;99.90
13585;DHT22;6863;48.402;9.994;2023-09-19T02:21:17;15.70;99.90
13585;DHT22;6863;48.402;9.994;2023-09-19T02:23:46;15.70;99.90
13585;DHT22;6863;48.402;9.994;2023-09-19T02:26:13;15.70;99.90
13585;DHT22;6863;48.402;9.994;2023-09-19T02:28:39;15.70;99.90
13585;DHT22;6863;48.402;9.994;2023-09-19T02:31:05;15.70;99.90
13585;DHT22;6863;48.402;9.994;2023-09-19T02:33:31;15.80;99.90
13585;DHT22;6863;48.402;9.994;2023-09-19T02:35:58;15.80;99.90
13585;DHT22;6863;48.402;9.994;2023-09-19T02:38:25;15.80;99.90
13585;DHT22;6863;48.402;9.994;2023-09-19T02:40:53;15.70;99.90
13585;DHT22;6863;48.402;9.994;2023-09-19T02:43:20;15.80;99.90
13585;DHT22;6863;48.402;9.994;2023-09-19T02:45:46;15.80;99.90
13585;DHT22;6863;48.402;9.994;2023-09-19T02:48:12;15.80;99.90
13585;DHT22;6863;48.402;9.994;2023-09-19T02:50:38;15.80;99.90
13585;DHT22;6863;48.402;9.994;2023-09-19T02:53:05;15.80;99.90
13585;DHT22;6863;48.402;9.994;2023-09-19T02:55:32;15.90;99.90
13585;DHT22;6863;48.402;9.994;2023-09-19T02:57:58;15.90;99.90
13585;DHT22;6863;48.402;9.994;2023-09-19T03:00:23;16.00;99.90
13585;DHT22;6863;48.402;9.994;2023-09-19T03:02:55;16.00;99.90
13585;DHT22;6863;48.402;9.994;2023-09-19T03:05:22;16.00;99.90
13585;DHT22;6863;48.402;9.994;2023-09-19T03:07:52;16.00;99.90
13585;DHT22;6863;48.402;9.994;2023-09-19T03:10:18;16.00;99.90
13585;DHT22;6863;48.402;9.994;2023-09-19T03:12:44;16.00;99.90
13585;DHT22;6863;48.402;9.994;2023-09-19T03:15:09;16.00;99.90
13585;DHT22;6863;48.402;9.994;2023-09-19T03:17:35;16.10;99.90
13585;DHT22;6863;48.402;9.994;2023-09-19T03:20:02;16.10;99.90
13585;DHT22;6863;48.402;9.994;2023-09-19T03:22:28;16.00;99.90
13585;DHT22;6863;48.402;9.994;2023-09-19T03:24:54;16.00;99.90
13585;DHT22;6863;48.402;9.994;2023-09-19T03:27:20;16.10;99.90
13585;DHT22;6863;48.402;9.994;2023-09-19T03:29:49;16.10;99.90
13585;DHT22;6863;48.402;9.994;2023-09-19T03:32:14;16.10;99.90
13585;DHT22;6863;48.402;9.994;2023-09-19T03:34:40;16.00;99.90
13585;DHT22;6863;48.402;9.994;2023-09-19T03:37:08;16.00;99.90
13585;DHT22;6863;48.402;9.994;2023-09-19T03:39:34;15.90;99.90
13585;DHT22;6863;48.402;9.994;2023-09-19T03:42:00;15.80;99.90
13585;DHT22;6863;48.402;9.994;2023-09-19T03:44:26;15.80;99.90
13585;DHT22;6863;48.402;9.994;2023-09-19T03:46:51;15.70;99.90
13585;DHT22;6863;48.402;9.994;2023-09-19T03:49:17;15.60;99.90
13585;DHT22;6863;48.402;9.994;2023-09-19T03:51:42;15.60;99.90
13585;DHT22;6863;48.402;9.994;2023-09-19T03:54:08;15.60;99.90
13585;DHT22;6863;48.402;9.994;2023-09-19T03:56:34;15.50;99.90
13585;DHT22;6863;48.402;9.994;2023-09-19T03:58:59;15.50;99.90
13585;DHT22;6863;48.402;9.994;2023-09-19T04:01:25;15.40;99.90
13585;DHT22;6863;48.402;9.994;2023-09-19T04:03:53;15.30;99.90
13585;DHT22;6863;48.402;9.994;2023-09-19T04:06:19;15.30;99.90
13585;DHT22;6863;48.402;9.994;2023-09-19T04:08:44;15.30;99.90
13585;DHT22;6863;48.402;9.994;2023-09-19T04:11:11;15.30;99.90
13585;DHT22;6863;48.402;9.994;2023-09-19T04:13:37;15.30;99.90
13585;DHT22;6863;48.402;9.994;2023-09-19T04:16:03;15.30;99.90
13585;DHT22;6863;48.402;9.994;2023-09-19T04:18:35;15.40;99.90
13585;DHT22;6863;48.402;9.994;2023-09-19T04:21:03;15.40;99.90
13585;DHT22;6863;48.402;9.994;2023-09-19T04:23:31;15.40;99.90
13585;DHT22;6863;48.402;9.994;2023-09-19T04:25:57;15.50;99.90
13585;DHT22;6863;48.402;9.994;2023-09-19T04:28:23;15.50;99.90
13585;DHT22;6863;48.402;9.994;2023-09-19T04:30:49;15.60;99.90
13585;DHT22;6863;48.402;9.994;2023-09-19T04:33:15;15.60;99.90
13585;DHT22;6863;48.402;9.994;2023-09-19T04:35:41;15.60;99.90
13585;DHT22;6863;48.402;9.994;2023-09-19T04:38:08;15.60;99.90
13585;DHT22;6863;48.402;9.994;2023-09-19T04:40:34;15.60;99.90
13585;DHT22;6863;48.402;9.994;2023-09-19T04:43:00;15.50;99.90
13585;DHT22;6863;48.402;9.994;2023-09-19T04:45:27;15.50;99.90
13585;DHT22;6863;48.402;9.994;2023-09-19T04:47:53;15.50;99.90
13585;DHT22;6863;48.402;9.994;2023-09-19T04:50:19;15.50;99.90
13585;DHT22;6863;48.402;9.994;2023-09-19T04:52:49;15.60;99.90
13585;DHT22;6863;48.402;9.994;2023-09-19T04:55:17;15.50;99.90
13585;DHT22;6863;48.402;9.994;2023-09-19T04:57:45;15.60;99.90
13585;DHT22;6863;48.402;9.994;2023-09-19T05:00:16;15.60;99.90
13585;DHT22;6863;48.402;9.994;2023-09-19T05:02:43;15.60;99.90
13585;DHT22;6863;48.402;9.994;2023-09-19T05:05:09;15.70;99.90
13585;DHT22;6863;48.402;9.994;2023-09-19T05:07:41;15.80;99.90
13585;DHT22;6863;48.402;9.994;2023-09-19T05:10:07;15.80;99.90
13585;DHT22;6863;48.402;9.994;2023-09-19T05:12:34;15.70;99.90
13585;DHT22;6863;48.402;9.994;2023-09-19T05:15:04;15.80;99.90
13585;DHT22;6863;48.402;9.994;2023-09-19T05:17:30;15.80;99.90
13585;DHT22;6863;48.402;9.994;2023-09-19T05:19:56;15.80;99.90
13585;DHT22;6863;48.402;9.994;2023-09-19T05:22:23;15.80;99.90
13585;DHT22;6863;48.402;9.994;2023-09-19T05:24:50;15.90;99.90
13585;DHT22;6863;48.402;9.994;2023-09-19T05:27:16;15.90;99.90
13585;DHT22;6863;48.402;9.994;2023-09-19T05:29:45;15.90;99.90
13585;DHT22;6863;48.402;9.994;2023-09-19T05:32:11;15.80;99.90
13585;DHT22;6863;48.402;9.994;2023-09-19T05:34:37;15.80;99.90
13585;DHT22;6863;48.402;9.994;2023-09-19T05:37:04;15.80;99.90
13585;DHT22;6863;48.402;9.994;2023-09-19T05:39:32;15.80;99.90
13585;DHT22;6863;48.402;9.994;2023-09-19T05:41:58;15.80;99.90
13585;DHT22;6863;48.402;9.994;2023-09-19T05:44:25;15.90;99.90
13585;DHT22;6863;48.402;9.994;2023-09-19T05:46:51;16.00;99.90
13585;DHT22;6863;48.402;9.994;2023-09-19T05:49:17;16.00;99.90
13585;DHT22;6863;48.402;9.994;2023-09-19T05:51:43;16.10;99.90
13585;DHT22;6863;48.402;9.994;2023-09-19T05:54:08;16.10;99.90
13585;DHT22;6863;48.402;9.994;2023-09-19T05:56:34;16.10;99.90
13585;DHT22;6863;48.402;9.994;2023-09-19T05:59:00;16.00;99.90
13585;DHT22;6863;48.402;9.994;2023-09-19T06:01:25;16.00;99.90
13585;DHT22;6863;48.402;9.994;2023-09-19T06:03:52;15.90;99.90
13585;DHT22;6863;48.402;9.994;2023-09-19T06:06:18;15.90;99.90
13585;DHT22;6863;48.402;9.994;2023-09-19T06:08:44;15.90;99.90
13585;DHT22;6863;48.402;9.994;2023-09-19T06:11:10;15.90;99.90
13585;DHT22;6863;48.402;9.994;2023-09-19T06:13:36;15.80;99.90
13585;DHT22;6863;48.402;9.994;2023-09-19T06:16:04;15.80;99.90
13585;DHT22;6863;48.402;9.994;2023-09-19T06:18:31;15.90;99.90
13585;DHT22;6863;48.402;9.994;2023-09-19T06:20:59;16.00;99.90
13585;DHT22;6863;48.402;9.994;2023-09-19T06:23:25;16.20;99.90
13585;DHT22;6863;48.402;9.994;2023-09-19T06:25:52;16.50;99.90
13585;DHT22;6863;48.402;9.994;2023-09-19T06:28:22;16.80;99.90
13585;DHT22;6863;48.402;9.994;2023-09-19T06:30:51;17.20;99.90
13585;DHT22;6863;48.402;9.994;2023-09-19T06:33:16;17.30;99.90
13585;DHT22;6863;48.402;9.994;2023-09-19T06:35:43;17.20;99.90
13585;DHT22;6863;48.402;9.994;2023-09-19T06:38:12;17.10;99.90
13585;DHT22;6863;48.402;9.994;2023-09-19T06:40:38;17.00;99.90
13585;DHT22;6863;48.402;9.994;2023-09-19T06:43:05;17.00;99.90
13585;DHT22;6863;48.402;9.994;2023-09-19T06:45:30;17.00;99.90
13585;DHT22;6863;48.402;9.994;2023-09-19T06:47:57;17.10;99.90
13585;DHT22;6863;48.402;9.994;2023-09-19T06:50:25;17.10;99.90
13585;DHT22;6863;48.402;9.994;2023-09-19T06:52:54;17.10;99.90
13585;DHT22;6863;48.402;9.994;2023-09-19T06:55:21;17.20;99.90
13585;DHT22;6863;48.402;9.994;2023-09-19T06:57:49;17.40;99.90
13585;DHT22;6863;48.402;9.994;2023-09-19T07:00:15;17.70;99.90
13585;DHT22;6863;48.402;9.994;2023-09-19T07:02:55;18.00;99.90
13585;DHT22;6863;48.402;9.994;2023-09-19T07:05:21;18.30;99.90
13585;DHT22;6863;48.402;9.994;2023-09-19T07:07:47;18.30;99.90
13585;DHT22;6863;48.402;9.994;2023-09-19T07:10:12;18.20;99.90
13585;DHT22;6863;48.402;9.994;2023-09-19T07:12:38;18.20;99.90
13585;DHT22;6863;48.402;9.994;2023-09-19T07:15:04;18.20;99.90
13585;DHT22;6863;48.402;9.994;2023-09-19T07:17:31;18.60;99.90
13585;DHT22;6863;48.402;9.994;2023-09-19T07:19:58;19.10;99.90
13585;DHT22;6863;48.402;9.994;2023-09-19T07:22:25;19.10;99.90
13585;DHT22;6863;48.402;9.994;2023-09-19T07:24:51;19.10;99.90
13585;DHT22;6863;48.402;9.994;2023-09-19T07:27:17;19.30;99.90
13585;DHT22;6863;48.402;9.994;2023-09-19T07:29:43;19.30;99.90
13585;DHT22;6863;48.402;9.994;2023-09-19T07:32:08;19.40;99.90
13585;DHT22;6863;48.402;9.994;2023-09-19T07:34:35;19.70;99.90
13585;DHT22;6863;48.402;9.994;2023-09-19T07:37:01;19.50;99.90
13585;DHT22;6863;48.402;9.994;2023-09-19T07:39:28;19.40;99.90
13585;DHT22;6863;48.402;9.994;2023-09-19T07:41:53;19.10;99.90
13585;DHT22;6863;48.402;9.994;2023-09-19T07:44:19;18.90;99.90
13585;DHT22;6863;48.402;9.994;2023-09-19T07:46:45;19.00;99.90
13585;DHT22;6863;48.402;9.994;2023-09-19T07:49:11;19.20;99.90
13585;DHT22;6863;48.402;9.994;2023-09-19T07:51:37;19.40;99.90
13585;DHT22;6863;48.402;9.994;2023-09-19T07:54:02;19.60;99.90
13585;DHT22;6863;48.402;9.994;2023-09-19T07:56:29;19.80;99.90
13585;DHT22;6863;48.402;9.994;2023-09-19T07:58:56;19.80;99.90
13585;DHT22;6863;48.402;9.994;2023-09-19T08:01:24;20.00;99.90
13585;DHT22;6863;48.402;9.994;2023-09-19T08:03:52;19.90;99.70
13585;DHT22;6863;48.402;9.994;2023-09-19T08:06:18;19.70;99.90
13585;DHT22;6863;48.402;9.994;2023-09-19T08:08:46;19.80;99.90
13585;DHT22;6863;48.402;9.994;2023-09-19T08:11:11;19.90;99.40
13585;DHT22;6863;48.402;9.994;2023-09-19T08:13:40;20.10;99.40
13585;DHT22;6863;48.402;9.994;2023-09-19T08:16:10;20.30;98.60
13585;DHT22;6863;48.402;9.994;2023-09-19T08:18:36;20.40;98.30
13585;DHT22;6863;48.402;9.994;2023-09-19T08:21:05;20.60;97.90
13585;DHT22;6863;48.402;9.994;2023-09-19T08:23:33;21.20;97.40
13585;DHT22;6863;48.402;9.994;2023-09-19T08:25:59;21.90;95.90
13585;DHT22;6863;48.402;9.994;2023-09-19T08:28:28;22.40;94.30
13585;DHT22;6863;48.402;9.994;2023-09-19T08:30:55;23.00;93.70
13585;DHT22;6863;48.402;9.994;2023-09-19T08:33:21;23.80;92.00
13585;DHT22;6863;48.402;9.994;2023-09-19T08:35:46;24.20;91.20
13585;DHT22;6863;48.402;9.994;2023-09-19T08:38:12;24.20;90.50
13585;DHT22;6863;48.402;9.994;2023-09-19T08:40:40;23.70;90.50
13585;DHT22;6863;48.402;9.994;2023-09-19T08:43:07;23.70;90.90
13585;DHT22;6863;48.402;9.994;2023-09-19T08:45:34;24.20;89.70
13585;DHT22;6863;48.402;9.994;2023-09-19T08:48:23;23.30;89.40
13585;DHT22;6863;48.402;9.994;2023-09-19T08:51:06;23.00;90.10
13585;DHT22;6863;48.402;9.994;2023-09-19T08:53:50;22.30;90.80
13585;DHT22;6863;48.402;9.994;2023-09-19T08:56:18;22.20;91.60
13585;DHT22;6863;48.402;9.994;2023-09-19T08:58:50;22.40;91.10
13585;DHT22;6863;48.402;9.994;2023-09-19T09:01:19;21.90;91.60
13585;DHT22;6863;48.402;9.994;2023-09-19T09:03:52;21.50;92.40
13585;DHT22;6863;48.402;9.994;2023-09-19T09:06:20;21.70;92.70
13585;DHT22;6863;48.402;9.994;2023-09-19T09:08:46;21.70;91.70
13585;DHT22;6863;48.402;9.994;2023-09-19T09:11:13;21.40;92.10
13585;DHT22;6863;48.402;9.994;2023-09-19T09:13:40;21.70;92.40
13585;DHT22;6863;48.402;9.994;2023-09-19T09:16:07;21.80;92.10
13585;DHT22;6863;48.402;9.994;2023-09-19T09:18:33;21.50;91.90
13585;DHT22;6863;48.402;9.994;2023-09-19T09:20:59;21.20;92.20
13585;DHT22;6863;48.402;9.994;2023-09-19T09:23:26;20.90;92.50
13585;DHT22;6863;48.402;9.994;2023-09-19T09:25:55;20.50;92.90
13585;DHT22;6863;48.402;9.994;2023-09-19T09:28:46;20.30;93.20
13585;DHT22;6863;48.402;9.994;2023-09-19T09:31:24;20.10;93.70
13585;DHT22;6863;48.402;9.994;2023-09-19T09:33:54;20.10;93.90
13585;DHT22;6863;48.402;9.994;2023-09-19T09:36:34;20.20;93.90
13585;DHT22;6863;48.402;9.994;2023-09-19T09:39:00;20.40;93.80
13585;DHT22;6863;48.402;9.994;2023-09-19T09:41:41;20.60;93.40
13585;DHT22;6863;48.402;9.994;2023-09-19T09:44:16;20.90;92.80
13585;DHT22;6863;48.402;9.994;2023-09-19T09:46:47;21.00;92.30
13585;DHT22;6863;48.402;9.994;2023-09-19T09:49:26;20.90;91.80
13585;DHT22;6863;48.402;9.994;2023-09-19T09:54:27;20.60;92.10
13585;DHT22;6863;48.402;9.994;2023-09-19T09:57:00;20.60;92.10
13585;DHT22;6863;48.402;9.994;2023-09-19T10:02:35;20.90;91.70
13585;DHT22;6863;48.402;9.994;2023-09-19T10:05:19;21.30;91.30
13585;DHT22;6863;48.402;9.994;2023-09-19T10:07:46;21.80;90.80
13585;DHT22;6863;48.402;9.994;2023-09-19T10:10:34;22.40;89.70
13585;DHT22;6863;48.402;9.994;2023-09-19T10:13:07;22.80;88.50
13585;DHT22;6863;48.402;9.994;2023-09-19T10:15:33;23.50;85.50
13585;DHT22;6863;48.402;9.994;2023-09-19T10:18:04;25.50;79.80
13585;DHT22;6863;48.402;9.994;2023-09-19T10:20:31;26.80;73.20
13585;DHT22;6863;48.402;9.994;2023-09-19T10:23:03;26.30;72.80
13585;DHT22;6863;48.402;9.994;2023-09-19T10:25:39;26.60;71.00
13585;DHT22;6863;48.402;9.994;2023-09-19T10:28:12;26.80;69.80
13585;DHT22;6863;48.402;9.994;2023-09-19T10:30:44;28.60;64.10
13585;DHT22;6863;48.402;9.994;2023-09-19T10:33:18;28.40;60.40
13585;DHT22;6863;48.402;9.994;2023-09-19T10:35:47;28.80;59.10
13585;DHT22;6863;48.402;9.994;2023-09-19T10:38:17;30.40;55.80
13585;DHT22;6863;48.402;9.994;2023-09-19T10:40:44;31.40;50.90
13585;DHT22;6863;48.402;9.994;2023-09-19T10:43:16;32.30;48.20
13585;DHT22;6863;48.402;9.994;2023-09-19T10:45:45;33.80;45.00
13585;DHT22;6863;48.402;9.994;2023-09-19T10:48:18;34.60;41.00
13585;DHT22;6863;48.402;9.994;2023-09-19T10:51:10;33.60;41.00
13585;DHT22;6863;48.402;9.994;2023-09-19T10:53:53;34.60;40.80
13585;DHT22;6863;48.402;9.994;2023-09-19T10:56:26;37.30;36.70
13585;DHT22;6863;48.402;9.994;2023-09-19T10:59:08;37.80;33.20
13585;DHT22;6863;48.402;9.994;2023-09-19T11:07:06;37.60;32.10
13585;DHT22;6863;48.402;9.994;2023-09-19T11:12:12;37.60;31.50
13585;DHT22;6863;48.402;9.994;2023-09-19T11:14:38;37.10;32.20
13585;DHT22;6863;48.402;9.994;2023-09-19T11:28:38;41.20;26.80
13585;DHT22;6863;48.402;9.994;2023-09-19T11:31:42;38.10;28.00
13585;DHT22;6863;48.402;9.994;2023-09-19T11:34:43;35.80;31.80
13585;DHT22;6863;48.402;9.994;2023-09-19T11:40:06;32.60;36.60
13585;DHT22;6863;48.402;9.994;2023-09-19T11:42:58;34.50;34.50
13585;DHT22;6863;48.402;9.994;2023-09-19T11:48:20;36.20;31.90
13585;DHT22;6863;48.402;9.994;2023-09-19T11:50:51;36.40;30.30
13585;DHT22;6863;48.402;9.994;2023-09-19T11:53:17;36.10;31.00
13585;DHT22;6863;48.402;9.994;2023-09-19T11:55:45;36.70;30.20
13585;DHT22;6863;48.402;9.994;2023-09-19T11:58:14;36.90;28.70
13585;DHT22;6863;48.402;9.994;2023-09-19T12:00:44;35.30;30.50
13585;DHT22;6863;48.402;9.994;2023-09-19T12:03:11;35.40;30.10
13585;DHT22;6863;48.402;9.994;2023-09-19T12:05:37;32.30;33.90
13585;DHT22;6863;48.402;9.994;2023-09-19T12:08:04;30.50;38.20
13585;DHT22;6863;48.402;9.994;2023-09-19T12:10:33;33.10;36.60
13585;DHT22;6863;48.402;9.994;2023-09-19T12:12:59;36.30;31.80
13585;DHT22;6863;48.402;9.994;2023-09-19T12:15:28;37.80;29.80
13585;DHT22;6863;48.402;9.994;2023-09-19T12:18:00;38.20;29.00
13585;DHT22;6863;48.402;9.994;2023-09-19T12:20:43;38.30;28.30
13585;DHT22;6863;48.402;9.994;2023-09-19T12:23:15;36.70;29.20
13585;DHT22;6863;48.402;9.994;2023-09-19T12:25:42;35.10;30.30
13585;DHT22;6863;48.402;9.994;2023-09-19T12:28:12;34.30;31.90
13585;DHT22;6863;48.402;9.994;2023-09-19T12:30:37;34.40;31.70
13585;DHT22;6863;48.402;9.994;2023-09-19T12:33:17;36.20;30.70
13585;DHT22;6863;48.402;9.994;2023-09-19T12:35:47;37.60;29.20
13585;DHT22;6863;48.402;9.994;2023-09-19T12:38:26;38.30;28.40
13585;DHT22;6863;48.402;9.994;2023-09-19T12:40:55;38.10;28.30
13585;DHT22;6863;48.402;9.994;2023-09-19T12:43:21;36.10;29.50
13585;DHT22;6863;48.402;9.994;2023-09-19T12:45:47;37.10;29.50
13585;DHT22;6863;48.402;9.994;2023-09-19T12:51:08;40.40;26.10
13585;DHT22;6863;48.402;9.994;2023-09-19T12:53:37;39.70;25.50
13585;DHT22;6863;48.402;9.994;2023-09-19T12:56:10;37.70;27.70
13585;DHT22;6863;48.402;9.994;2023-09-19T12:58:56;37.10;27.20
13585;DHT22;6863;48.402;9.994;2023-09-19T13:01:22;35.70;28.10
13585;DHT22;6863;48.402;9.994;2023-09-19T13:06:48;33.60;30.90
13585;DHT22;6863;48.402;9.994;2023-09-19T13:09:18;34.50;30.20
13585;DHT22;6863;48.402;9.994;2023-09-19T13:11:45;35.20;29.20
13585;DHT22;6863;48.402;9.994;2023-09-19T13:14:22;36.80;27.90
13585;DHT22;6863;48.402;9.994;2023-09-19T13:19:55;37.40;26.50
13585;DHT22;6863;48.402;9.994;2023-09-19T13:22:40;36.60;27.70
13585;DHT22;6863;48.402;9.994;2023-09-19T13:25:19;35.30;28.30
13585;DHT22;6863;48.402;9.994;2023-09-19T13:27:53;35.00;28.90
13585;DHT22;6863;48.402;9.994;2023-09-19T13:30:23;35.70;28.50
13585;DHT22;6863;48.402;9.994;2023-09-19T13:32:50;36.30;27.70
13585;DHT22;6863;48.402;9.994;2023-09-19T13:35:16;36.00;28.40
13585;DHT22;6863;48.402;9.994;2023-09-19T13:37:43;34.00;29.40
13585;DHT22;6863;48.402;9.994;2023-09-19T13:40:13;30.80;33.60
13585;DHT22;6863;48.402;9.994;2023-09-19T13:42:40;29.30;36.70
13585;DHT22;6863;48.402;9.994;2023-09-19T13:45:07;30.50;35.80
13585;DHT22;6863;48.402;9.994;2023-09-19T13:47:33;31.80;34.20
13585;DHT22;6863;48.402;9.994;2023-09-19T13:49:59;33.50;31.80
13585;DHT22;6863;48.402;9.994;2023-09-19T13:52:26;34.80;30.20
13585;DHT22;6863;48.402;9.994;2023-09-19T13:54:54;35.40;29.50
13585;DHT22;6863;48.402;9.994;2023-09-19T13:57:30;35.80;29.50
13585;DHT22;6863;48.402;9.994;2023-09-19T13:59:56;37.60;27.60
13585;DHT22;6863;48.402;9.994;2023-09-19T14:02:22;37.50;27.20
13585;DHT22;6863;48.402;9.994;2023-09-19T14:04:48;36.50;27.70
13585;DHT22;6863;48.402;9.994;2023-09-19T14:07:15;34.10;30.00
13585;DHT22;6863;48.402;9.994;2023-09-19T14:09:40;34.30;30.10
13585;DHT22;6863;48.402;9.994;2023-09-19T14:12:06;35.60;29.40
13585;DHT22;6863;48.402;9.994;2023-09-19T14:14:32;35.60;29.00
13585;DHT22;6863;48.402;9.994;2023-09-19T14:16:58;36.60;28.60
13585;DHT22;6863;48.402;9.994;2023-09-19T14:19:26;36.90;27.50
13585;DHT22;6863;48.402;9.994;2023-09-19T14:21:52;35.70;28.70
13585;DHT22;6863;48.402;9.994;2023-09-19T14:24:21;35.10;29.80
13585;DHT22;6863;48.402;9.994;2023-09-19T14:26:47;35.40;29.70
13585;DHT22;6863;48.402;9.994;2023-09-19T14:29:13;34.20;31.20
13585;DHT22;6863;48.402;9.994;2023-09-19T14:31:40;32.00;34.50
13585;DHT22;6863;48.402;9.994;2023-09-19T14:34:06;30.60;36.50
13585;DHT22;6863;48.402;9.994;2023-09-19T14:36:31;32.40;35.10
13585;DHT22;6863;48.402;9.994;2023-09-19T14:38:58;33.90;32.10
13585;DHT22;6863;48.402;9.994;2023-09-19T14:41:24;35.20;30.30
13585;DHT22;6863;48.402;9.994;2023-09-19T14:43:51;36.50;29.30
13585;DHT22;6863;48.402;9.994;2023-09-19T14:46:17;36.90;28.90
13585;DHT22;6863;48.402;9.994;2023-09-19T14:48:44;36.30;28.70
13585;DHT22;6863;48.402;9.994;2023-09-19T14:51:11;35.30;29.70
13585;DHT22;6863;48.402;9.994;2023-09-19T14:53:37;33.60;30.70
13585;DHT22;6863;48.402;9.994;2023-09-19T14:56:12;30.80;35.50
13585;DHT22;6863;48.402;9.994;2023-09-19T14:58:41;30.20;37.10
13585;DHT22;6863;48.402;9.994;2023-09-19T15:01:11;31.60;35.30
13585;DHT22;6863;48.402;9.994;2023-09-19T15:03:37;32.50;33.80
13585;DHT22;6863;48.402;9.994;2023-09-19T15:06:06;32.30;33.70
13585;DHT22;6863;48.402;9.994;2023-09-19T15:08:32;32.90;33.00
13585;DHT22;6863;48.402;9.994;2023-09-19T15:11:00;32.60;32.30
13585;DHT22;6863;48.402;9.994;2023-09-19T15:13:29;31.30;34.00
13585;DHT22;6863;48.402;9.994;2023-09-19T15:16:05;29.70;37.20
13585;DHT22;6863;48.402;9.994;2023-09-19T15:18:37;29.60;38.10
13585;DHT22;6863;48.402;9.994;2023-09-19T15:21:04;29.50;38.60
13585;DHT22;6863;48.402;9.994;2023-09-19T15:23:30;29.20;38.80
13585;DHT22;6863;48.402;9.994;2023-09-19T15:25:57;29.30;38.90
13585;DHT22;6863;48.402;9.994;2023-09-19T15:28:23;29.10;39.10
13585;DHT22;6863;48.402;9.994;2023-09-19T15:30:49;29.60;39.00
13585;DHT22;6863;48.402;9.994;2023-09-19T15:33:15;29.60;39.00
13585;DHT22;6863;48.402;9.994;2023-09-19T15:35:41;29.40;38.40
13585;DHT22;6863;48.402;9.994;2023-09-19T15:38:07;29.00;39.10
13585;DHT22;6863;48.402;9.994;2023-09-19T15:40:33;28.90;39.10
13585;DHT22;6863;48.402;9.994;2023-09-19T15:42:58;28.70;39.70
13585;DHT22;6863;48.402;9.994;2023-09-19T15:45:25;28.30;40.30
13585;DHT22;6863;48.402;9.994;2023-09-19T15:47:51;27.90;41.30
13585;DHT22;6863;48.402;9.994;2023-09-19T15:50:17;27.60;42.20
13585;DHT22;6863;48.402;9.994;2023-09-19T15:52:42;27.70;42.40
13585;DHT22;6863;48.402;9.994;2023-09-19T15:55:08;26.80;43.10
13585;DHT22;6863;48.402;9.994;2023-09-19T15:57:37;25.80;45.60
13585;DHT22;6863;48.402;9.994;2023-09-19T16:00:03;25.70;46.50
13585;DHT22;6863;48.402;9.994;2023-09-19T16:02:30;25.60;47.10
13585;DHT22;6863;48.402;9.994;2023-09-19T16:04:56;25.10;47.90
13585;DHT22;6863;48.402;9.994;2023-09-19T16:07:22;24.60;49.80
13585;DHT22;6863;48.402;9.994;2023-09-19T16:09:47;24.00;51.20
13585;DHT22;6863;48.402;9.994;2023-09-19T16:12:13;23.60;53.00
13585;DHT22;6863;48.402;9.994;2023-09-19T16:14:39;23.20;54.60
13585;DHT22;6863;48.402;9.994;2023-09-19T16:17:05;22.90;55.70
13585;DHT22;6863;48.402;9.994;2023-09-19T16:19:33;22.60;57.30
13585;DHT22;6863;48.402;9.994;2023-09-19T16:21:58;22.30;57.60
13585;DHT22;6863;48.402;9.994;2023-09-19T16:24:25;22.20;58.60
13585;DHT22;6863;48.402;9.994;2023-09-19T16:26:51;22.20;59.30
13585;DHT22;6863;48.402;9.994;2023-09-19T16:29:18;22.10;60.10
13585;DHT22;6863;48.402;9.994;2023-09-19T16:31:43;22.00;61.50
13585;DHT22;6863;48.402;9.994;2023-09-19T16:34:10;21.80;62.50
13585;DHT22;6863;48.402;9.994;2023-09-19T16:36:35;21.60;63.40
13585;DHT22;6863;48.402;9.994;2023-09-19T16:39:02;21.60;64.20
13585;DHT22;6863;48.402;9.994;2023-09-19T16:41:28;21.50;65.10
13585;DHT22;6863;48.402;9.994;2023-09-19T16:43:54;21.50;65.80
13585;DHT22;6863;48.402;9.994;2023-09-19T16:46:20;21.50;66.80